Time;durP1;ratioP1;P1;durP2;ratioP2;P2;SDS_P1;SDS_P2;PMS_P1;PMS_P2;Temp;Humidity;BMP_temperature;BMP_pressure;BME280_temperature;BME280_humidity;BME280_pressure;Samples;Min_cycle;Max_cycle;Signal;HPM_P1;HPM_P2
2021/08/04 00:00:26;;;;;;;4.00;3.20;;;12.70;99.90;;;13.53;68.73;94182.81;5007725;28;20207;-72
2021/08/04 00:02:52;;;;;;;5.03;3.03;;;12.60;99.90;;;13.59;68.80;94181.75;5008819;28;20645;-72
2021/08/04 00:05:19;;;;;;;3.47;3.07;;;12.70;99.90;;;13.61;68.96;94181.47;4992512;28;20664;-72
2021/08/04 00:07:45;;;;;;;2.50;2.30;;;12.60;99.90;;;13.51;68.91;94160.22;5009225;28;20235;-72
2021/08/04 00:10:12;;;;;;;4.20;2.90;;;12.80;99.90;;;13.43;68.78;94174.13;4988538;28;20229;-72
2021/08/04 00:12:37;;;;;;;3.17;2.70;;;12.70;99.90;;;13.41;69.38;94171.72;5008513;28;20197;-72
2021/08/04 00:15:09;;;;;;;3.27;2.97;;;13.30;99.90;;;13.43;69.00;94163.47;5000710;28;20205;-72
2021/08/04 00:17:35;;;;;;;3.20;2.57;;;13.20;99.90;;;13.43;69.17;94174.91;5012638;28;20238;-72
2021/08/04 00:20:03;;;;;;;2.60;2.40;;;12.60;99.90;;;13.44;69.19;94165.03;5010613;28;20586;-73
2021/08/04 00:22:30;;;;;;;4.13;2.70;;;12.50;99.90;;;13.47;69.37;94175.16;5009376;28;20663;-72
2021/08/04 00:24:56;;;;;;;2.97;1.73;;;12.50;99.90;;;13.61;69.54;94176.94;4988105;28;20218;-72
2021/08/04 00:27:24;;;;;;;2.80;2.10;;;12.60;99.90;;;13.53;69.44;94169.50;4991175;28;20201;-72
2021/08/04 00:29:50;;;;;;;3.70;2.10;;;12.60;99.90;;;13.58;69.51;94176.69;5005010;28;20274;-72
2021/08/04 00:32:16;;;;;;;2.43;2.23;;;12.60;99.90;;;13.59;69.51;94180.94;5007046;28;20925;-72
2021/08/04 00:34:41;;;;;;;2.60;2.10;;;12.60;99.90;;;13.63;69.65;94182.75;5004276;28;20645;-72
2021/08/04 00:37:09;;;;;;;2.57;2.20;;;12.70;99.90;;;13.63;69.94;94172.13;4967087;28;20199;-72
2021/08/04 00:39:35;;;;;;;3.23;2.03;;;12.80;99.90;;;13.54;69.56;94179.09;5007134;28;20659;-72
2021/08/04 00:42:01;;;;;;;4.03;2.03;;;12.60;99.90;;;13.52;70.10;94169.81;4989975;28;20204;-72
2021/08/04 00:44:27;;;;;;;2.77;2.20;;;12.60;99.90;;;13.50;70.08;94171.97;5003199;28;20298;-72
2021/08/04 00:46:54;;;;;;;2.50;2.30;;;12.50;99.90;;;13.59;70.25;94163.09;5005338;28;20207;-74
2021/08/04 00:49:20;;;;;;;2.27;2.07;;;12.60;99.90;;;13.58;70.17;94166.84;5008401;28;20203;-72
2021/08/04 00:51:46;;;;;;;4.23;2.30;;;12.60;99.90;;;13.55;70.06;94167.38;4992953;28;20239;-72
2021/08/04 00:54:14;;;;;;;3.20;2.10;;;12.60;99.90;;;13.53;70.38;94163.41;5008067;28;20197;-72
2021/08/04 00:56:45;;;;;;;2.43;2.23;;;12.60;99.90;;;13.51;70.36;94160.22;5008108;28;20574;-72
2021/08/04 00:59:16;;;;;;;1.80;1.70;;;12.60;99.90;;;13.57;70.63;94164.44;5008842;28;20220;-72
2021/08/04 01:01:50;;;;;;;3.90;2.23;;;12.60;99.90;;;13.61;70.53;94157.50;4982588;28;20204;-72
2021/08/04 01:04:30;;;;;;;2.73;2.10;;;12.60;99.90;;;13.57;70.36;94151.91;4990475;28;20203;-71
2021/08/04 01:07:20;;;;;;;2.57;2.37;;;12.60;99.90;;;13.41;70.57;94141.63;5016934;28;20199;-72
2021/08/04 01:09:51;;;;;;;2.77;2.47;;;12.50;99.90;;;13.40;70.46;94140.06;5009146;28;20738;-72
2021/08/04 01:12:26;;;;;;;3.80;2.23;;;12.40;99.90;;;13.34;70.39;94137.41;4990349;28;20749;-72
2021/08/04 01:15:02;;;;;;;2.67;2.47;;;12.40;99.90;;;13.41;70.34;94138.97;4987265;28;20185;-72
2021/08/04 01:17:29;;;;;;;2.47;2.20;;;12.40;99.90;;;13.34;70.81;94137.41;5021627;28;20325;-72
2021/08/04 01:20:22;;;;;;;2.93;2.33;;;12.40;99.90;;;13.42;70.41;94148.56;5012121;28;20273;-72
2021/08/04 01:23:16;;;;;;;3.70;2.37;;;12.40;99.90;;;13.50;70.96;94134.69;5001923;28;20201;-72
2021/08/04 01:26:06;;;;;;;3.13;2.50;;;12.50;99.90;;;13.54;71.33;94128.50;5016999;28;20204;-72
2021/08/04 01:28:45;;;;;;;2.53;2.10;;;12.50;99.90;;;13.56;71.18;94121.06;4988838;28;20266;-72
2021/08/04 01:31:18;;;;;;;2.93;2.63;;;12.60;99.90;;;13.51;70.87;94120.28;5014870;28;20223;-72
2021/08/04 01:33:50;;;;;;;3.13;2.70;;;12.50;99.90;;;13.49;71.05;94117.91;5020605;28;20197;-72
2021/08/04 01:36:16;;;;;;;3.50;2.30;;;12.50;99.90;;;13.52;71.30;94119.22;4986406;28;20291;-72
2021/08/04 01:38:43;;;;;;;3.00;2.43;;;12.50;99.90;;;13.40;71.45;94111.56;5020531;28;20184;-72
2021/08/04 01:41:12;;;;;;;5.90;2.67;;;12.40;99.90;;;13.31;71.04;94110.56;4992567;28;20276;-72
2021/08/04 01:43:40;;;;;;;5.33;2.80;;;12.30;99.90;;;13.40;71.44;94102.78;4991029;28;20189;-72
2021/08/04 01:46:08;;;;;;;5.57;2.60;;;12.40;99.90;;;13.48;71.44;94113.63;5020286;28;20735;-72
2021/08/04 01:48:38;;;;;;;3.27;2.80;;;12.40;99.90;;;13.47;71.42;94117.38;4994139;28;20207;-72
2021/08/04 01:51:08;;;;;;;5.00;3.07;;;12.40;99.90;;;13.48;71.30;94105.66;4991935;28;20653;-72
2021/08/04 01:53:35;;;;;;;3.57;3.10;;;12.50;99.90;;;13.48;71.51;94110.19;4995020;28;20251;-72
2021/08/04 01:56:01;;;;;;;3.10;2.53;;;12.50;99.90;;;13.47;71.29;94100.59;4988138;28;20199;-72
2021/08/04 01:58:28;;;;;;;4.07;2.40;;;12.50;99.90;;;13.49;71.51;94096.59;4993395;28;20254;-72
2021/08/04 02:00:54;;;;;;;3.83;2.90;;;12.60;99.90;;;13.41;71.42;94085.72;5015475;28;20225;-72
2021/08/04 02:03:20;;;;;;;4.23;2.87;;;12.50;99.90;;;13.39;71.48;94090.53;4973928;28;20224;-72
2021/08/04 02:05:49;;;;;;;3.40;2.90;;;12.40;99.90;;;13.42;71.55;94097.97;4989224;28;20235;-72
2021/08/04 02:08:25;;;;;;;3.47;2.60;;;12.50;99.90;;;13.57;72.04;94100.53;4991217;28;20228;-72
2021/08/04 02:11:16;;;;;;;3.77;2.47;;;13.00;99.90;;;13.59;71.82;94091.19;5006843;28;20207;-72
2021/08/04 02:13:56;;;;;;;3.03;2.53;;;12.60;99.90;;;13.54;72.02;94095.75;4994919;28;20519;-72
2021/08/04 02:16:57;;;;;;;2.73;2.40;;;12.60;99.90;;;13.66;71.71;94098.88;4991208;28;20846;-71
2021/08/04 02:19:36;;;;;;;3.40;2.40;;;12.20;99.90;;;13.54;71.82;94087.75;4990585;28;20613;-72
2021/08/04 02:22:13;;;;;;;2.70;2.40;;;12.50;99.90;;;13.46;72.18;94075.06;5009193;28;20683;-72
2021/08/04 02:24:46;;;;;;;3.00;2.33;;;12.50;99.90;;;13.46;71.90;94083.03;4984456;28;20553;-72
2021/08/04 02:27:15;;;;;;;3.40;2.33;;;12.50;99.90;;;13.52;72.11;94076.59;4989616;28;20260;-72
2021/08/04 02:29:44;;;;;;;5.57;2.53;;;12.60;99.90;;;13.58;72.13;94078.16;4990753;28;20223;-72
2021/08/04 02:32:10;;;;;;;3.03;2.53;;;12.60;99.90;;;13.56;72.00;94074.97;5003930;28;20233;-72
2021/08/04 02:34:36;;;;;;;4.00;2.40;;;12.60;99.90;;;13.59;72.38;94077.09;4986520;28;20599;-72
2021/08/04 02:37:03;;;;;;;3.03;2.40;;;12.60;99.90;;;13.59;72.29;94067.22;4993780;28;20301;-72
2021/08/04 02:39:29;;;;;;;3.07;2.63;;;12.60;99.90;;;13.60;72.20;94071.47;4973156;28;20205;-73
2021/08/04 02:41:56;;;;;;;5.20;2.90;;;12.60;99.90;;;13.64;72.43;94064.50;4993544;28;20202;-72
2021/08/04 02:44:24;;;;;;;2.80;2.43;;;12.70;99.90;;;13.61;72.38;94067.75;4971064;28;20274;-72
2021/08/04 02:46:51;;;;;;;3.03;2.50;;;12.70;99.90;;;13.60;72.59;94068.00;5008919;28;20189;-71
2021/08/04 02:49:19;;;;;;;3.50;2.47;;;12.70;99.90;;;13.62;72.69;94071.19;4974477;28;20215;-72
2021/08/04 02:51:47;;;;;;;2.40;2.20;;;12.70;99.90;;;13.62;72.82;94066.69;4992069;28;20411;-72
2021/08/04 02:54:21;;;;;;;2.93;2.60;;;12.70;99.90;;;13.64;72.76;94071.72;4973986;28;20196;-71
2021/08/04 02:56:47;;;;;;;3.40;2.40;;;12.00;99.90;;;13.58;72.71;94059.50;5002250;28;20205;-72
2021/08/04 02:59:13;;;;;;;3.07;2.50;;;12.70;99.90;;;13.56;72.60;94067.00;4994799;28;20707;-72
2021/08/04 03:01:39;;;;;;;2.70;2.17;;;12.70;99.90;;;13.52;72.96;94071.28;4992541;28;20223;-72
2021/08/04 03:04:05;;;;;;;4.90;2.90;;;12.60;99.90;;;13.51;72.80;94064.34;5005873;28;20687;-72
2021/08/04 03:06:31;;;;;;;2.93;2.43;;;12.60;99.90;;;13.52;72.61;94064.09;4989274;28;20212;-72
2021/08/04 03:08:57;;;;;;;2.60;2.40;;;12.60;99.90;;;13.57;72.81;94055.25;5009763;28;20338;-72
2021/08/04 03:11:22;;;;;;;3.67;2.20;;;12.60;99.90;;;13.50;73.12;94058.22;4976533;28;20218;-72
2021/08/04 03:13:48;;;;;;;2.63;2.40;;;12.60;99.90;;;13.52;73.18;94050.78;5007713;28;20193;-72
2021/08/04 03:16:14;;;;;;;4.20;2.70;;;12.60;99.90;;;13.52;72.87;94047.31;5010123;28;20211;-72
2021/08/04 03:18:40;;;;;;;3.17;2.37;;;12.60;99.90;;;13.52;73.33;94048.13;5008001;28;20189;-72
2021/08/04 03:21:06;;;;;;;3.23;2.50;;;12.60;99.90;;;13.59;72.98;94056.59;5010301;28;20200;-72
2021/08/04 03:23:32;;;;;;;7.57;2.60;;;12.70;99.90;;;13.60;73.02;94055.50;5001504;28;20228;-72
2021/08/04 03:25:58;;;;;;;3.00;2.67;;;12.70;99.90;;;13.56;73.40;94054.47;5006673;28;20223;-72
2021/08/04 03:28:24;;;;;;;2.87;2.30;;;12.70;99.90;;;13.41;73.12;94048.47;5009519;28;20211;-72
2021/08/04 03:30:50;;;;;;;3.90;2.37;;;12.50;99.90;;;13.34;73.49;94044.25;5011014;28;20275;-72
2021/08/04 03:33:16;;;;;;;3.10;2.80;;;12.40;99.90;;;13.30;73.20;94035.22;4990396;28;20727;-72
2021/08/04 03:35:42;;;;;;;2.83;2.57;;;12.40;99.90;;;13.38;73.46;94046.34;4990645;28;20193;-72
2021/08/04 03:38:10;;;;;;;2.77;2.30;;;12.40;99.90;;;13.45;73.36;94041.50;5007855;28;20855;-72
2021/08/04 03:40:36;;;;;;;2.90;2.57;;;12.50;99.90;;;13.42;73.75;94040.22;5007609;28;20194;-72
2021/08/04 03:43:02;;;;;;;3.90;2.80;;;12.40;99.90;;;13.49;73.26;94054.00;5012747;28;20201;-72
2021/08/04 03:45:28;;;;;;;2.93;2.40;;;12.50;99.90;;;13.51;73.64;94043.06;4986614;28;20200;-72
2021/08/04 03:47:54;;;;;;;2.83;2.10;;;12.60;99.90;;;13.45;73.48;94039.66;4989602;28;20188;-72
2021/08/04 03:50:20;;;;;;;3.83;2.47;;;12.90;99.90;;;13.39;73.54;94040.75;5009964;28;20276;-72
2021/08/04 03:52:47;;;;;;;2.80;2.03;;;12.50;99.90;;;13.51;73.74;94043.06;5011704;28;20193;-72
2021/08/04 03:55:16;;;;;;;3.07;2.63;;;14.30;99.90;;;13.46;73.75;94043.09;5006345;28;20188;-72
2021/08/04 03:57:45;;;;;;;2.90;2.40;;;12.60;99.90;;;13.43;73.64;94049.00;5008758;28;20247;-72
2021/08/04 04:00:12;;;;;;;3.80;2.40;;;12.50;99.90;;;13.48;73.79;94046.28;5018659;28;20763;-72
2021/08/04 04:02:39;;;;;;;4.43;2.60;;;12.60;99.90;;;13.52;73.95;94047.31;5007007;28;20197;-72
2021/08/04 04:05:07;;;;;;;2.97;2.53;;;12.60;99.90;;;13.57;74.22;94053.38;4977308;28;20666;-72
2021/08/04 04:07:34;;;;;;;3.40;2.30;;;12.60;99.90;;;13.56;73.83;94057.13;4994045;28;20544;-72
2021/08/04 04:10:05;;;;;;;3.00;2.20;;;12.70;99.90;;;13.56;73.75;94057.13;5000900;28;20192;-72
2021/08/04 04:12:31;;;;;;;5.97;2.53;;;12.70;99.90;;;13.54;74.36;94050.47;5006612;28;20218;-71
2021/08/04 04:14:59;;;;;;;2.50;2.17;;;12.60;99.90;;;13.63;74.09;94062.91;5013896;28;20199;-72
2021/08/04 04:17:25;;;;;;;3.10;2.50;;;12.70;99.90;;;13.54;73.99;94053.94;4990674;28;20762;-72
2021/08/04 04:19:51;;;;;;;4.33;2.30;;;12.60;99.90;;;13.68;74.33;94056.75;4979345;28;20197;-72
2021/08/04 04:22:20;;;;;;;3.87;2.23;;;12.70;99.90;;;13.66;74.24;94053.59;5005925;28;20202;-72
2021/08/04 04:24:46;;;;;;;3.20;2.20;;;12.70;99.90;;;13.68;73.91;94040.78;5011647;28;20188;-72
2021/08/04 04:27:13;;;;;;;2.77;2.27;;;12.70;99.90;;;13.65;73.97;94041.34;5019614;28;20201;-72
2021/08/04 04:29:42;;;;;;;3.10;2.27;;;12.80;99.90;;;13.67;74.09;94042.66;4998631;28;20849;-72
2021/08/04 04:32:10;;;;;;;4.67;2.60;;;12.80;99.90;;;13.76;74.45;94041.00;4982037;28;20224;-72
2021/08/04 04:34:36;;;;;;;2.47;2.27;;;12.90;99.90;;;13.86;74.58;94034.78;5010871;28;20648;-72
2021/08/04 04:37:02;;;;;;;3.47;1.90;;;12.90;99.90;;;13.75;74.28;94036.72;5005228;28;20197;-72
2021/08/04 04:39:28;;;;;;;6.30;2.67;;;12.90;99.90;;;13.79;74.38;94037.75;5012631;28;20196;-73
2021/08/04 04:41:54;;;;;;;3.10;2.33;;;12.90;99.90;;;13.83;74.71;94036.09;4990883;28;20198;-72
2021/08/04 04:44:23;;;;;;;3.10;2.50;;;12.90;99.90;;;13.98;74.54;94045.03;5011077;28;20264;-73
2021/08/04 04:46:51;;;;;;;2.73;2.33;;;12.90;99.90;;;14.03;74.48;94043.13;5007952;28;20208;-73
2021/08/04 04:49:17;;;;;;;3.20;2.40;;;13.00;99.90;;;13.95;74.75;94038.41;4987838;28;20208;-72
2021/08/04 04:51:43;;;;;;;2.93;2.63;;;13.10;99.90;;;14.01;74.83;94041.81;5005430;28;20562;-73
2021/08/04 04:54:10;;;;;;;5.90;2.50;;;13.10;99.90;;;14.02;74.79;94044.19;4989181;28;20210;-73
2021/08/04 04:56:36;;;;;;;2.67;2.47;;;13.10;99.90;;;14.11;74.74;94047.03;4989432;28;20193;-72
2021/08/04 04:59:01;;;;;;;3.87;2.33;;;13.20;99.90;;;14.16;74.70;94045.13;4988022;28;20196;-73
2021/08/04 05:01:31;;;;;;;3.43;2.20;;;13.30;99.90;;;14.16;74.95;94047.00;4991093;28;20196;-73
2021/08/04 05:03:57;;;;;;;4.97;2.30;;;13.30;99.90;;;14.10;74.69;94046.22;4989408;28;20295;-73
2021/08/04 05:06:23;;;;;;;2.70;2.30;;;13.30;99.90;;;14.15;75.02;94048.06;4989471;28;20201;-73
2021/08/04 05:08:48;;;;;;;2.20;1.97;;;13.30;99.90;;;14.18;74.73;94052.81;5018339;28;20193;-73
2021/08/04 05:11:17;;;;;;;2.30;2.10;;;13.30;99.90;;;14.19;75.00;94049.88;5007859;28;20223;-73
2021/08/04 05:13:43;;;;;;;3.27;1.90;;;13.30;99.90;;;14.26;74.92;94047.69;5006694;28;20226;-73
2021/08/04 05:16:09;;;;;;;3.17;2.33;;;13.40;99.90;;;14.27;75.12;94053.78;5007645;28;20189;-73
2021/08/04 05:18:35;;;;;;;2.30;2.10;;;13.40;99.90;;;14.40;74.98;94055.84;4999366;28;20183;-73
2021/08/04 05:21:00;;;;;;;2.73;2.40;;;13.50;99.90;;;14.43;74.78;94044.59;5008507;28;20622;-73
2021/08/04 05:23:29;;;;;;;4.37;2.40;;;13.60;99.90;;;14.47;74.92;94060.81;4990035;28;20201;-73
2021/08/04 05:25:55;;;;;;;3.73;1.97;;;13.60;99.90;;;14.52;74.98;94058.88;5011928;28;20197;-72
2021/08/04 05:28:20;;;;;;;5.43;2.23;;;13.70;99.90;;;14.57;75.17;94047.38;4992592;28;20193;-73
2021/08/04 05:30:47;;;;;;;2.73;2.33;;;13.70;99.90;;;14.63;75.22;94054.22;5007788;28;20220;-73
2021/08/04 05:33:12;;;;;;;3.20;2.30;;;13.80;99.90;;;14.67;75.34;94052.59;5010484;28;20195;-73
2021/08/04 05:35:39;;;;;;;2.87;2.10;;;13.90;99.90;;;14.73;75.22;94062.09;5011120;28;20197;-73
2021/08/04 05:38:04;;;;;;;3.13;2.20;;;14.40;99.90;;;14.71;75.09;94056.25;4995564;28;20905;-73
2021/08/04 05:40:30;;;;;;;3.13;2.17;;;14.40;99.90;;;14.74;75.14;94045.03;4995631;28;20224;-73
2021/08/04 05:42:56;;;;;;;2.40;2.20;;;14.90;99.90;;;14.78;75.37;94049.47;4976808;28;20227;-73
2021/08/04 05:45:22;;;;;;;3.67;2.40;;;14.90;99.90;;;14.83;75.34;94051.31;5009431;28;20189;-73
2021/08/04 05:47:48;;;;;;;2.77;2.30;;;14.10;99.90;;;14.79;75.31;94047.63;5011312;28;20247;-72
2021/08/04 05:50:16;;;;;;;3.17;2.20;;;14.00;99.90;;;14.77;75.29;94052.47;5009363;28;20188;-73
2021/08/04 05:52:42;;;;;;;3.33;2.33;;;14.00;99.90;;;14.78;75.17;94046.00;5013967;28;20270;-73
2021/08/04 05:55:11;;;;;;;3.53;2.07;;;14.00;99.90;;;14.85;75.40;94055.25;5010003;28;20200;-71
2021/08/04 05:57:38;;;;;;;2.50;2.30;;;14.00;99.90;;;14.85;75.49;94054.47;4990856;28;20285;-71
2021/08/04 06:00:06;;;;;;;3.57;2.73;;;14.00;99.90;;;14.82;75.32;94066.53;5007238;28;20319;-71
2021/08/04 06:02:34;;;;;;;2.67;2.40;;;14.00;99.90;;;14.85;75.45;94054.47;5002309;28;20208;-71
2021/08/04 06:05:00;;;;;;;3.00;2.70;;;14.00;99.90;;;14.93;75.31;94048.50;5009301;28;20198;-73
2021/08/04 06:07:26;;;;;;;3.07;2.80;;;14.10;99.90;;;15.01;75.40;94058.53;5002596;28;20239;-71
2021/08/04 06:09:52;;;;;;;5.40;2.60;;;14.20;99.90;;;15.03;75.60;94052.91;5010579;28;20850;-72
2021/08/04 06:12:18;;;;;;;2.87;2.53;;;14.20;99.90;;;15.12;75.30;94057.31;5005673;28;20224;-72
2021/08/04 06:14:44;;;;;;;2.73;2.50;;;14.30;99.90;;;15.21;75.38;94052.91;5009982;28;20255;-71
2021/08/04 06:17:12;;;;;;;2.43;2.23;;;14.40;99.90;;;15.26;75.56;94063.53;5006851;28;20201;-71
2021/08/04 06:19:41;;;;;;;3.80;2.40;;;14.40;99.90;;;15.33;75.26;94055.94;4992328;28;20197;-71
2021/08/04 06:22:06;;;;;;;2.73;2.53;;;14.40;99.90;;;15.39;75.46;94041.44;5005402;28;20778;-72
2021/08/04 06:24:35;;;;;;;3.67;2.50;;;14.50;99.90;;;15.51;75.58;94040.22;5006615;28;20293;-71
2021/08/04 06:27:01;;;;;;;2.50;2.03;;;14.60;99.90;;;15.42;75.54;94040.03;5008181;28;20201;-71
2021/08/04 06:29:27;;;;;;;3.40;2.03;;;14.60;99.90;;;15.56;75.50;94048.94;4996633;28;20644;-71
2021/08/04 06:31:53;;;;;;;3.33;2.10;;;14.70;99.90;;;15.66;75.45;94035.41;5013732;28;20270;-72
2021/08/04 06:34:19;;;;;;;2.17;1.97;;;14.80;99.90;;;15.73;75.51;94035.84;5007990;28;20193;-71
2021/08/04 06:36:45;;;;;;;1.73;1.50;;;14.90;99.90;;;15.76;75.53;94039.81;5006438;28;20189;-71
2021/08/04 06:39:12;;;;;;;2.30;1.60;;;14.90;99.90;;;15.81;75.43;94043.16;4986538;28;20197;-71
2021/08/04 06:41:38;;;;;;;2.70;1.70;;;15.00;99.90;;;15.68;75.33;94045.84;5002657;28;20196;-71
2021/08/04 06:44:04;;;;;;;1.70;1.60;;;14.80;99.90;;;15.87;75.45;94043.91;4986562;28;20248;-71
2021/08/04 06:46:38;;;;;;;2.07;1.77;;;14.90;99.90;;;15.88;75.39;94042.81;5008372;28;20345;-71
2021/08/04 06:49:06;;;;;;;2.30;2.10;;;15.00;99.90;;;15.84;75.74;94034.59;4987848;28;20196;-71
2021/08/04 06:51:35;;;;;;;2.07;1.87;;;14.90;99.90;;;15.76;75.42;94037.94;5001852;28;20209;-71
2021/08/04 06:54:02;;;;;;;1.80;1.57;;;14.90;99.90;;;15.88;75.33;94032.91;4988061;28;20190;-70
2021/08/04 06:56:28;;;;;;;1.90;1.80;;;14.90;99.90;;;15.72;75.35;94028.09;4992414;28;20194;-71
2021/08/04 06:58:56;;;;;;;1.83;1.70;;;14.80;99.90;;;15.89;75.42;94039.84;4975897;28;20188;-70
2021/08/04 07:01:22;;;;;;;2.77;1.70;;;14.90;99.90;;;16.00;75.28;94018.28;5002827;28;20235;-71
2021/08/04 07:03:48;;;;;;;3.70;1.90;;;15.10;99.90;;;16.25;75.37;94033.88;5004079;28;20568;-70
2021/08/04 07:06:14;;;;;;;3.00;1.73;;;15.30;99.90;;;16.48;75.21;94051.63;4972182;28;20660;-71
2021/08/04 07:08:40;;;;;;;1.53;1.43;;;15.50;99.90;;;16.81;75.33;94046.97;5005312;28;20297;-71
2021/08/04 07:11:07;;;;;;;2.10;1.70;;;15.80;99.90;;;16.88;75.23;94040.13;5004257;28;20653;-71
2021/08/04 07:13:33;;;;;;;2.07;1.60;;;16.00;99.90;;;17.10;75.35;94026.00;4992767;28;20264;-71
2021/08/04 07:15:59;;;;;;;1.60;1.50;;;16.30;99.90;;;16.80;75.10;94022.09;5005996;28;20197;-71
2021/08/04 07:18:25;;;;;;;2.33;1.50;;;16.00;99.90;;;17.01;75.07;94041.19;5006528;28;20197;-71
2021/08/04 07:20:51;;;;;;;1.77;1.67;;;16.90;99.90;;;17.07;75.29;94018.56;5006588;28;20225;-71
2021/08/04 07:23:17;;;;;;;2.20;1.80;;;16.60;99.90;;;17.12;75.09;94031.84;5003750;28;20198;-71
2021/08/04 07:25:43;;;;;;;1.93;1.30;;;16.80;99.90;;;17.17;75.23;94010.31;4986460;28;20197;-71
2021/08/04 07:28:10;;;;;;;2.03;1.80;;;16.90;99.90;;;17.16;75.39;94013.25;5003043;28;20283;-71
2021/08/04 07:30:36;;;;;;;2.20;1.80;;;17.20;99.90;;;17.16;75.13;94038.16;4991327;28;20842;-71
2021/08/04 07:33:04;;;;;;;2.70;1.80;;;16.50;99.90;;;17.27;75.12;94034.19;4993795;28;20206;-71
2021/08/04 07:35:32;;;;;;;3.63;1.80;;;16.60;99.90;;;17.49;75.12;94046.81;4997701;28;20217;-71
2021/08/04 07:37:58;;;;;;;1.97;1.80;;;16.80;99.90;;;17.44;75.00;94042.38;4982758;28;20254;-71
2021/08/04 07:40:27;;;;;;;3.47;1.83;;;16.80;99.90;;;17.32;74.92;94034.09;4992597;28;20198;-71
2021/08/04 07:42:53;;;;;;;1.83;1.73;;;16.70;99.90;;;17.37;74.68;94035.84;4997767;28;20194;-71
2021/08/04 07:45:20;;;;;;;2.27;2.07;;;16.70;99.90;;;17.38;74.97;94042.78;5000101;28;20249;-71
2021/08/04 07:47:48;;;;;;;2.50;2.10;;;16.70;99.90;;;17.20;74.95;94030.31;5009858;28;20197;-73
2021/08/04 07:50:15;;;;;;;2.90;2.10;;;16.60;99.90;;;17.09;74.90;94021.72;5005057;28;20648;-73
2021/08/04 07:52:41;;;;;;;2.60;2.40;;;16.50;99.90;;;17.41;74.83;94036.81;5003949;28;20703;-74
2021/08/04 07:55:13;;;;;;;3.50;2.23;;;16.70;99.90;;;17.68;75.03;94031.38;5004264;28;20189;-74
2021/08/04 07:57:39;;;;;;;3.57;2.17;;;17.00;99.90;;;17.36;74.86;94026.19;5006507;28;20233;-74
2021/08/04 08:00:07;;;;;;;2.83;2.23;;;16.80;99.90;;;17.44;75.16;94033.53;5004229;28;20694;-74
2021/08/04 08:02:33;;;;;;;2.50;2.30;;;16.80;99.90;;;17.39;75.11;94044.38;5011641;28;20203;-74
2021/08/04 08:04:59;;;;;;;2.80;2.50;;;16.80;99.90;;;17.20;74.81;94017.72;5006849;28;20201;-74
2021/08/04 08:07:25;;;;;;;4.37;2.60;;;16.60;99.90;;;17.34;74.77;94025.72;5015362;28;20412;-74
2021/08/04 08:09:51;;;;;;;4.67;2.80;;;16.70;99.90;;;17.36;75.01;94010.13;4990311;28;20522;-74
2021/08/04 08:12:17;;;;;;;3.00;2.00;;;16.70;99.90;;;17.39;74.85;94014.91;5008087;28;20243;-74
2021/08/04 08:14:44;;;;;;;3.00;2.00;;;16.80;99.90;;;17.15;74.78;94012.50;5007459;28;20616;-74
2021/08/04 08:17:10;;;;;;;2.63;2.33;;;16.60;99.90;;;16.81;74.78;94018.31;4983152;28;20247;-74
2021/08/04 08:19:38;;;;;;;2.23;2.03;;;16.20;99.90;;;17.01;74.70;94048.44;5005698;28;20728;-74
2021/08/04 08:22:04;;;;;;;2.07;1.87;;;16.20;99.90;;;17.19;74.78;94029.53;4999413;28;20224;-74
2021/08/04 08:24:33;;;;;;;6.70;2.30;;;16.50;99.90;;;16.89;74.79;94011.44;5007999;28;20210;-74
2021/08/04 08:27:01;;;;;;;3.60;2.27;;;16.20;99.90;;;16.82;74.64;94053.91;5009382;28;20921;-74
2021/08/04 08:29:27;;;;;;;4.83;2.60;;;16.10;99.90;;;16.96;74.60;94032.47;5006088;28;20197;-74
2021/08/04 08:31:54;;;;;;;3.73;2.20;;;16.30;99.90;;;16.96;74.55;94035.13;5006883;28;20704;-74
2021/08/04 08:34:19;;;;;;;3.73;2.30;;;16.20;99.90;;;17.12;74.82;94021.13;5003266;28;20222;-74
2021/08/04 08:36:48;;;;;;;2.47;2.27;;;16.40;99.90;;;17.01;74.68;94022.44;5000434;28;20276;-71
2021/08/04 08:39:14;;;;;;;3.40;2.70;;;16.30;99.90;;;17.36;74.56;94040.41;5004242;28;20201;-71
2021/08/04 08:41:39;;;;;;;2.60;2.40;;;16.60;99.90;;;17.46;74.49;94022.53;5005437;28;20203;-72
2021/08/04 08:44:07;;;;;;;4.70;2.50;;;16.70;99.90;;;17.60;74.43;94047.38;4988473;28;20206;-72
2021/08/04 08:46:34;;;;;;;3.80;2.43;;;16.80;99.90;;;17.86;74.71;94037.66;4978589;28;20210;-72
2021/08/04 08:49:00;;;;;;;3.07;2.57;;;17.10;99.90;;;18.01;74.60;94045.31;4989472;28;20911;-71
2021/08/04 08:51:27;;;;;;;3.17;2.47;;;17.30;99.90;;;18.47;74.16;94052.19;5005908;28;20221;-71
2021/08/04 08:53:53;;;;;;;4.03;3.40;;;17.70;99.90;;;18.38;74.41;94022.63;5008129;28;20250;-71
2021/08/04 08:56:19;;;;;;;5.60;4.27;;;17.70;99.90;;;18.18;74.24;94010.53;4998577;28;20188;-71
2021/08/04 08:58:48;;;;;;;4.43;4.03;;;17.60;99.90;;;18.40;74.30;94050.72;4988753;28;20783;-71
2021/08/04 09:01:15;;;;;;;4.17;3.77;;;17.70;99.90;;;18.76;74.13;94031.00;4989774;28;20564;-70
2021/08/04 09:03:40;;;;;;;5.07;4.53;;;18.00;99.90;;;18.85;74.36;94010.31;4990149;28;20195;-70
2021/08/04 09:06:08;;;;;;;4.47;4.03;;;18.90;99.90;;;19.13;74.13;94027.75;5002998;28;20227;-71
2021/08/04 09:08:37;;;;;;;5.20;4.70;;;18.60;99.90;;;19.00;74.12;94019.84;5004333;28;20267;-70
2021/08/04 09:11:17;;;;;;;4.73;4.30;;;18.50;99.90;;;19.22;73.83;94046.56;4982257;28;20212;-70
2021/08/04 09:13:45;;;;;;;4.80;4.40;;;18.40;99.90;;;19.08;73.95;94011.78;5003969;28;20204;-70
2021/08/04 09:16:16;;;;;;;4.20;3.83;;;18.60;99.90;;;19.47;73.90;94004.72;4999478;28;20200;-70
2021/08/04 09:18:53;;;;;;;3.67;3.07;;;19.00;99.90;;;19.32;73.78;94005.94;5017023;28;20217;-70
2021/08/04 09:21:20;;;;;;;3.30;3.00;;;18.90;99.90;;;19.52;73.46;94018.00;5003674;28;20589;-71
2021/08/04 09:23:55;;;;;;;4.20;3.80;;;19.00;99.90;;;19.39;73.66;93996.31;5004380;28;20222;-70
2021/08/04 09:26:26;;;;;;;4.60;3.57;;;18.90;99.90;;;19.43;73.38;94018.81;4988889;28;20184;-70
2021/08/04 09:29:01;;;;;;;4.70;3.30;;;19.00;99.90;;;19.70;73.20;94027.66;5008691;28;20656;-70
2021/08/04 09:31:50;;;;;;;3.90;3.10;;;19.20;99.90;;;19.80;73.14;94016.56;5000606;28;20218;-70
2021/08/04 09:34:25;;;;;;;5.57;3.80;;;19.30;99.90;;;19.68;73.16;94006.44;5010313;28;20198;-70
2021/08/04 09:37:14;;;;;;;4.20;3.80;;;19.20;99.90;;;19.97;73.02;94030.00;5004866;28;20219;-70
2021/08/04 09:39:45;;;;;;;4.07;3.23;;;19.40;99.90;;;20.12;73.01;94024.09;5000718;28;20196;-72
2021/08/04 09:42:13;;;;;;;3.53;3.07;;;19.70;99.90;;;20.22;72.96;94012.19;5005517;28;20276;-72
2021/08/04 09:44:56;;;;;;;3.47;3.17;;;19.80;99.90;;;20.50;72.84;94026.06;4994411;28;20202;-72
2021/08/04 09:47:28;;;;;;;3.43;3.13;;;20.10;99.90;;;20.87;72.83;94006.41;5003451;28;20538;-72
2021/08/04 09:50:00;;;;;;;3.60;3.30;;;20.50;99.90;;;21.06;72.66;93998.66;4984948;28;20661;-72
2021/08/04 09:52:27;;;;;;;3.83;2.83;;;20.70;99.90;;;21.24;72.67;94002.06;5007931;28;20268;-72
2021/08/04 09:54:53;;;;;;;3.80;3.10;;;21.00;99.90;;;20.95;72.54;94006.34;4990572;28;20553;-72
2021/08/04 09:57:38;;;;;;;3.97;3.60;;;20.70;99.90;;;20.18;72.45;93978.97;5009736;28;20203;-72
2021/08/04 10:00:11;;;;;;;4.97;3.63;;;20.20;99.90;;;19.95;72.39;93989.13;5017795;28;20258;-72
2021/08/04 10:02:37;;;;;;;4.27;3.17;;;19.80;99.90;;;20.17;72.39;94015.06;5006485;28;20220;-72
2021/08/04 10:05:19;;;;;;;4.10;3.70;;;19.80;99.90;;;20.59;72.36;94006.06;5003282;28;20646;-72
2021/08/04 10:08:13;;;;;;;4.20;3.20;;;20.30;99.90;;;20.70;72.18;94017.25;5002605;28;20204;-75
2021/08/04 10:10:49;;;;;;;4.77;3.10;;;20.30;99.90;;;20.52;71.96;94002.28;5006836;28;20288;-74
2021/08/04 10:13:18;;;;;;;3.70;3.30;;;20.30;99.90;;;20.47;71.94;93989.81;5006599;28;20190;-74
2021/08/04 10:15:54;;;;;;;3.87;3.13;;;20.20;99.90;;;20.36;71.82;94005.53;5006573;28;20193;-74
2021/08/04 10:18:23;;;;;;;3.73;3.33;;;20.00;99.90;;;20.05;71.96;93961.88;5004751;28;20226;-72
2021/08/04 10:21:12;;;;;;;3.50;3.20;;;19.80;99.90;;;20.22;71.64;93977.97;5005916;28;20190;-74
2021/08/04 10:23:47;;;;;;;3.23;2.93;;;19.90;99.90;;;20.35;71.90;94006.63;5000819;28;20203;-74
2021/08/04 10:26:14;;;;;;;3.97;3.30;;;20.00;99.90;;;20.35;71.68;93990.47;5021999;28;20580;-74